createdAt,value
2022-08-16T00:03:30.583Z,99.39
2022-08-16T00:06:44.032Z,99.66
2022-08-16T00:09:49.946Z,99.39
2022-08-16T00:12:58.926Z,99.84
2022-08-16T00:17:06.337Z,99.63
2022-08-16T00:19:41.935Z,99.91
2022-08-16T00:22:48.328Z,99.61
2022-08-16T00:26:36.291Z,99.83
2022-08-16T00:29:23.120Z,100.00
2022-08-16T00:32:32.782Z,100.00
2022-08-16T00:35:39.440Z,100.00
2022-08-16T00:38:45.091Z,100.00
2022-08-16T00:41:51.327Z,100.00
2022-08-16T00:44:58.203Z,100.00
2022-08-16T00:48:30.697Z,100.00
2022-08-16T00:51:30.268Z,100.00
2022-08-16T00:54:36.627Z,100.00
2022-08-16T00:57:59.051Z,100.00
2022-08-16T01:01:08.279Z,100.00
2022-08-16T01:04:28.895Z,100.00
2022-08-16T01:07:50.760Z,100.00
2022-08-16T01:11:00.158Z,100.00
2022-08-16T01:14:13.659Z,100.00
2022-08-16T01:17:20.616Z,100.00
2022-08-16T01:20:34.197Z,100.00
2022-08-16T01:24:00.710Z,100.00
2022-08-16T01:27:10.605Z,100.00
2022-08-16T01:30:20.193Z,100.00
2022-08-16T01:33:33.298Z,100.00
2022-08-16T01:36:41.951Z,100.00
2022-08-16T01:39:48.301Z,100.00
2022-08-16T01:42:55.517Z,100.00
2022-08-16T01:46:29.555Z,100.00
2022-08-16T01:49:43.067Z,100.00
2022-08-16T01:53:00.781Z,100.00
2022-08-16T01:56:23.313Z,100.00
2022-08-16T01:59:33.841Z,100.00
2022-08-16T02:02:42.527Z,100.00
2022-08-16T02:05:52.085Z,100.00
2022-08-16T02:08:58.096Z,100.00
2022-08-16T02:12:50.480Z,100.00
2022-08-16T02:15:40.164Z,100.00
2022-08-16T02:18:51.996Z,100.00
2022-08-16T02:22:08.530Z,100.00
2022-08-16T02:25:24.758Z,100.00
2022-08-16T02:28:51.151Z,100.00
2022-08-16T02:32:03.896Z,100.00
2022-08-16T02:35:27.519Z,100.00
2022-08-16T02:38:33.920Z,100.00
2022-08-16T02:41:40.740Z,100.00
2022-08-16T02:44:46.616Z,100.00
2022-08-16T02:48:00.362Z,100.00
2022-08-16T02:51:10.897Z,100.00
2022-08-16T02:54:23.919Z,100.00
2022-08-16T02:57:32.076Z,100.00
2022-08-16T03:00:37.732Z,100.00
2022-08-16T03:04:29.192Z,100.00
2022-08-16T03:07:11.900Z,100.00
2022-08-16T03:10:33.302Z,100.00
2022-08-16T03:13:41.856Z,100.00
2022-08-16T03:16:59.106Z,100.00
2022-08-16T03:20:07.190Z,100.00
2022-08-16T03:23:18.595Z,100.00
2022-08-16T03:26:24.604Z,100.00
2022-08-16T03:29:32.221Z,100.00
2022-08-16T03:32:44.316Z,100.00
2022-08-16T03:35:59.485Z,100.00
2022-08-16T03:39:26.003Z,100.00
2022-08-16T03:42:33.041Z,100.00
2022-08-16T03:45:59.260Z,100.00
2022-08-16T03:49:12.108Z,100.00
2022-08-16T03:52:18.076Z,100.00
2022-08-16T03:55:26.092Z,100.00
2022-08-16T03:58:46.150Z,100.00
2022-08-16T04:01:54.323Z,100.00
2022-08-16T04:05:00.535Z,100.00
2022-08-16T04:08:23.516Z,100.00
2022-08-16T04:11:39.354Z,100.00
2022-08-16T04:14:46.804Z,100.00
2022-08-16T04:17:55.131Z,100.00
2022-08-16T04:21:03.337Z,100.00
2022-08-16T04:24:10.351Z,100.00
2022-08-16T04:27:18.921Z,100.00
2022-08-16T04:30:31.997Z,100.00
2022-08-16T04:33:51.282Z,100.00
2022-08-16T04:37:01.763Z,100.00
2022-08-16T04:40:11.334Z,100.00
2022-08-16T04:43:27.945Z,100.00
2022-08-16T04:47:00.849Z,100.00
2022-08-16T04:50:03.296Z,100.00
2022-08-16T04:53:11.749Z,99.46
2022-08-16T04:56:21.258Z,98.64
2022-08-16T04:59:29.631Z,98.62
2022-08-16T05:02:42.632Z,96.74
2022-08-16T05:06:05.370Z,95.77
2022-08-16T05:09:16.721Z,94.88
2022-08-16T05:12:30.410Z,94.59
2022-08-16T05:15:38.274Z,93.46
2022-08-16T05:18:44.251Z,92.72
2022-08-16T05:21:50.075Z,92.88
2022-08-16T05:24:57.741Z,91.94
2022-08-16T05:28:04.094Z,91.66
2022-08-16T05:31:10.369Z,90.97
2022-08-16T05:34:19.860Z,90.38
2022-08-16T05:37:26.525Z,90.09
2022-08-16T05:40:57.164Z,90.51
2022-08-16T05:44:24.134Z,90.18
2022-08-16T05:47:32.150Z,88.77
2022-08-16T05:50:42.777Z,87.72
2022-08-16T05:53:48.574Z,87.53
2022-08-16T05:56:56.115Z,86.19
2022-08-16T06:00:08.489Z,85.18
2022-08-16T06:03:20.799Z,84.38
2022-08-16T06:06:35.131Z,83.84
2022-08-16T06:09:46.665Z,82.83
2022-08-16T06:12:55.953Z,81.90
2022-08-16T06:16:03.816Z,80.75
2022-08-16T06:19:12.352Z,79.57
2022-08-16T06:22:37.568Z,79.48
2022-08-16T06:25:52.209Z,78.66
2022-08-16T06:29:02.012Z,78.42
2022-08-16T06:32:27.044Z,77.89
2022-08-16T06:35:40.152Z,75.09
2022-08-16T06:38:55.464Z,74.12
2022-08-16T06:42:07.156Z,74.36
2022-08-16T06:45:31.722Z,73.93
2022-08-16T06:48:53.474Z,71.83
2022-08-16T06:52:03.053Z,70.90
2022-08-16T06:55:16.087Z,70.94
2022-08-16T06:58:31.635Z,71.12
2022-08-16T07:01:54.637Z,71.09
2022-08-16T07:05:02.866Z,71.14
2022-08-16T07:08:11.365Z,71.48
2022-08-16T07:11:21.030Z,69.43
2022-08-16T07:14:48.694Z,67.24
2022-08-16T07:18:00.692Z,67.23
2022-08-16T07:21:07.769Z,68.29
2022-08-16T07:24:30.610Z,67.31
2022-08-16T07:27:41.483Z,66.39
2022-08-16T07:30:51.488Z,66.73
2022-08-16T07:34:10.139Z,65.73
2022-08-16T07:37:17.316Z,66.46
2022-08-16T07:41:00.628Z,66.35
2022-08-16T07:44:15.418Z,67.36
2022-08-16T07:47:24.564Z,65.43
2022-08-16T07:50:55.777Z,65.58
2022-08-16T07:54:09.070Z,65.30
2022-08-16T07:57:18.955Z,62.03
2022-08-16T08:00:28.773Z,61.64
2022-08-16T08:03:39.943Z,59.96
2022-08-16T08:06:51.170Z,59.12
2022-08-16T08:09:58.130Z,57.18
2022-08-16T08:13:04.532Z,56.05
2022-08-16T08:16:18.481Z,55.85
2022-08-16T08:19:26.746Z,54.27
2022-08-16T08:22:33.631Z,53.13
2022-08-16T08:25:54.333Z,52.63
2022-08-16T08:29:03.243Z,53.39
2022-08-16T08:33:00.495Z,53.22
2022-08-16T08:35:42.642Z,53.65
2022-08-16T08:38:51.336Z,54.14
2022-08-16T08:41:57.656Z,53.83
2022-08-16T08:45:04.532Z,52.52
2022-08-16T08:48:33.491Z,52.39
2022-08-16T08:51:38.440Z,51.04
2022-08-16T08:54:54.170Z,53.22
2022-08-16T08:57:59.951Z,52.01
2022-08-16T09:01:31.473Z,52.32
2022-08-16T09:04:42.777Z,51.97
2022-08-16T09:08:02.006Z,50.94
2022-08-16T09:11:40.796Z,51.86
2022-08-16T09:14:50.865Z,51.51
2022-08-16T09:18:02.105Z,51.38
2022-08-16T09:21:31.484Z,51.57
2022-08-16T09:24:51.651Z,50.33
2022-08-16T09:28:09.401Z,50.49
2022-08-16T09:31:22.160Z,49.65
2022-08-16T09:34:29.641Z,48.68
2022-08-16T09:37:36.730Z,46.81
2022-08-16T09:40:43.986Z,48.94
2022-08-16T09:43:58.591Z,48.00
2022-08-16T09:47:10.430Z,47.94
2022-08-16T09:50:22.531Z,45.24
2022-08-16T09:53:29.909Z,43.86
2022-08-16T09:56:36.710Z,45.18
2022-08-16T09:59:43.573Z,44.58
2022-08-16T10:02:49.472Z,43.33
2022-08-16T10:05:55.581Z,44.09
2022-08-16T10:09:05.358Z,43.28
2022-08-16T10:12:29.711Z,41.53
2022-08-16T10:15:36.283Z,41.70
2022-08-16T10:19:06.714Z,42.50
2022-08-16T10:22:12.909Z,42.86
2022-08-16T10:27:16.986Z,41.80
2022-08-16T10:28:45.928Z,40.35
2022-08-16T10:31:56.034Z,40.37
2022-08-16T10:35:03.694Z,40.02
2022-08-16T10:38:09.821Z,39.17
2022-08-16T10:41:33.619Z,38.53
2022-08-16T10:44:40.441Z,36.39
2022-08-16T10:47:51.628Z,35.35
2022-08-16T10:51:09.660Z,36.18
2022-08-16T10:54:28.400Z,34.84
2022-08-16T10:57:35.786Z,36.59
2022-08-16T11:00:42.089Z,34.53
2022-08-16T11:03:54.394Z,33.66
2022-08-16T11:07:08.202Z,34.06
2022-08-16T11:13:59.274Z,33.97
2022-08-16T11:17:11.085Z,34.52
2022-08-16T11:23:57.845Z,34.94
2022-08-16T11:27:23.612Z,34.23
2022-08-16T11:30:39.193Z,34.50
2022-08-16T11:33:53.115Z,34.41
2022-08-16T11:37:01.276Z,34.68
2022-08-16T11:40:09.317Z,33.52
2022-08-16T11:43:17.637Z,33.68
2022-08-16T11:46:27.869Z,33.20
2022-08-16T11:49:50.076Z,34.59
2022-08-16T11:52:59.004Z,34.18
2022-08-16T11:56:09.678Z,35.10
2022-08-16T11:59:24.449Z,34.76
2022-08-16T12:02:46.006Z,33.58
2022-08-16T12:05:54.409Z,33.13
2022-08-16T12:09:02.251Z,33.47
2022-08-16T12:12:09.242Z,32.63
2022-08-16T12:15:16.964Z,32.44
2022-08-16T12:18:22.848Z,32.55
2022-08-16T12:21:57.605Z,32.90
2022-08-16T12:24:54.937Z,32.25
2022-08-16T12:28:00.725Z,32.11
2022-08-16T12:31:09.740Z,30.67
2022-08-16T12:34:28.720Z,30.70
2022-08-16T12:37:35.130Z,31.24
2022-08-16T12:40:42.573Z,31.77
2022-08-16T12:43:48.785Z,32.74
2022-08-16T12:47:15.736Z,31.05
2022-08-16T12:50:21.462Z,31.63
2022-08-16T12:53:31.894Z,31.74
2022-08-16T12:56:40.151Z,31.29
2022-08-16T12:59:46.131Z,31.58
2022-08-16T13:02:52.814Z,32.07
2022-08-16T13:05:59.075Z,32.17
2022-08-16T13:09:20.405Z,30.56
2022-08-16T13:12:28.383Z,30.03
2022-08-16T13:15:36.233Z,30.86
2022-08-16T13:18:57.525Z,30.63
2022-08-16T13:22:03.208Z,30.46
2022-08-16T13:25:11.678Z,30.33
2022-08-16T13:28:20.309Z,30.26
2022-08-16T13:31:26.376Z,30.35
2022-08-16T13:34:32.176Z,30.23
2022-08-16T13:37:39.510Z,29.76
2022-08-16T13:40:47.709Z,29.46
2022-08-16T13:43:59.243Z,29.40
2022-08-16T13:47:05.817Z,28.32
2022-08-16T13:50:12.013Z,28.65
2022-08-16T13:53:18.471Z,27.95
2022-08-16T13:56:37.174Z,28.59
2022-08-16T13:59:45.339Z,28.59
2022-08-16T14:02:53.726Z,28.63
2022-08-16T14:06:02.255Z,27.46
2022-08-16T14:09:07.997Z,27.33
2022-08-16T14:12:21.515Z,27.20
2022-08-16T14:15:27.357Z,27.55
2022-08-16T14:18:39.177Z,28.30
2022-08-16T14:21:56.527Z,27.84
2022-08-16T14:25:07.246Z,28.28
2022-08-16T14:28:17.103Z,28.81
2022-08-16T14:31:23.566Z,28.26
2022-08-16T14:34:30.096Z,27.83
2022-08-16T14:37:37.211Z,27.70
2022-08-16T14:40:43.569Z,26.68
2022-08-16T14:43:53.643Z,26.25
2022-08-16T14:46:59.423Z,26.16
2022-08-16T14:50:08.663Z,25.62
2022-08-16T14:53:14.664Z,24.94
2022-08-16T14:56:42.407Z,24.88
2022-08-16T14:59:49.578Z,25.69
2022-08-16T15:02:59.715Z,26.22
2022-08-16T15:06:05.656Z,26.58
2022-08-16T15:09:12.292Z,26.36
2022-08-16T15:12:31.211Z,26.06
2022-08-16T15:15:39.826Z,25.76
2022-08-16T15:18:54.398Z,25.94
2022-08-16T15:22:00.969Z,25.50
2022-08-16T15:25:12.439Z,25.81
2022-08-16T15:28:31.305Z,25.73
2022-08-16T15:31:38.000Z,25.15
2022-08-16T15:34:45.540Z,24.55
2022-08-16T15:37:54.538Z,24.49
2022-08-16T15:41:00.675Z,24.93
2022-08-16T15:44:10.798Z,23.75
2022-08-16T15:47:17.071Z,24.32
2022-08-16T15:50:26.473Z,24.65
2022-08-16T15:53:32.213Z,25.03
2022-08-16T15:56:51.605Z,23.73
2022-08-16T16:00:04.321Z,24.04
2022-08-16T16:03:18.613Z,24.33
2022-08-16T16:06:27.986Z,23.61
2022-08-16T16:09:37.134Z,23.75
2022-08-16T16:12:53.001Z,23.99
2022-08-16T16:16:03.293Z,23.78
2022-08-16T16:19:09.820Z,23.42
2022-08-16T16:22:16.959Z,23.53
2022-08-16T16:25:24.234Z,23.72
2022-08-16T16:29:08.213Z,23.33
2022-08-16T16:32:00.135Z,23.27
2022-08-16T16:35:09.807Z,23.75
2022-08-16T16:38:17.183Z,23.90
2022-08-16T16:41:27.849Z,23.65
2022-08-16T16:44:36.513Z,23.67
2022-08-16T16:47:44.916Z,23.83
2022-08-16T16:50:50.908Z,23.53
2022-08-16T16:54:03.352Z,23.91
2022-08-16T16:57:29.120Z,23.76
2022-08-16T17:00:38.355Z,23.42
2022-08-16T17:03:44.852Z,23.62
2022-08-16T17:06:59.611Z,23.48
2022-08-16T17:10:06.856Z,23.40
2022-08-16T17:13:14.888Z,23.72
2022-08-16T17:16:22.064Z,23.86
2022-08-16T17:19:41.133Z,24.29
2022-08-16T17:22:47.702Z,24.53
2022-08-16T17:26:01.041Z,24.69
2022-08-16T17:29:10.858Z,25.37
2022-08-16T17:32:33.996Z,25.62
2022-08-16T17:35:55.200Z,26.10
2022-08-16T17:39:02.257Z,26.58
2022-08-16T17:42:10.193Z,27.82
2022-08-16T17:45:18.312Z,28.91
2022-08-16T17:48:25.906Z,29.73
2022-08-16T17:51:31.909Z,30.90
2022-08-16T17:54:37.515Z,31.33
2022-08-16T17:57:43.290Z,32.42
2022-08-16T18:00:54.624Z,33.07
2022-08-16T18:04:09.082Z,34.01
2022-08-16T18:07:15.692Z,34.58
2022-08-16T18:10:32.771Z,35.47
2022-08-16T18:13:43.378Z,35.86
2022-08-16T18:16:49.328Z,36.46
2022-08-16T18:19:55.170Z,37.01
2022-08-16T18:23:07.926Z,38.12
2022-08-16T18:26:13.803Z,37.83
2022-08-16T18:29:20.708Z,39.33
2022-08-16T18:32:27.643Z,40.55
2022-08-16T18:35:33.389Z,40.80
2022-08-16T18:38:39.478Z,41.01
2022-08-16T18:41:47.242Z,42.07
2022-08-16T18:44:52.977Z,42.36
2022-08-16T18:47:58.882Z,42.61
2022-08-16T18:51:09.336Z,42.94
2022-08-16T18:54:19.103Z,43.72
2022-08-16T18:57:30.478Z,43.91
2022-08-16T19:00:45.661Z,44.81
2022-08-16T19:04:02.213Z,44.82
2022-08-16T19:07:07.997Z,45.62
2022-08-16T19:10:13.603Z,45.88
2022-08-16T19:13:20.709Z,46.32
2022-08-16T19:16:28.119Z,47.21
2022-08-16T19:19:33.824Z,47.73
2022-08-16T19:23:02.260Z,48.81
2022-08-16T19:26:07.192Z,49.11
2022-08-16T19:29:16.832Z,48.85
2022-08-16T19:32:25.025Z,49.50
2022-08-16T19:35:30.688Z,49.73
2022-08-16T19:38:36.539Z,50.65
2022-08-16T19:41:45.172Z,50.64
2022-08-16T19:44:53.020Z,50.89
2022-08-16T19:48:03.774Z,51.72
2022-08-16T19:51:12.558Z,51.88
2022-08-16T19:54:18.252Z,52.73
2022-08-16T19:57:26.094Z,53.03
2022-08-16T20:00:35.670Z,53.11
2022-08-16T20:03:41.395Z,54.16
2022-08-16T20:06:47.278Z,54.80
2022-08-16T20:09:53.792Z,54.83
2022-08-16T20:13:03.026Z,55.09
2022-08-16T20:16:09.057Z,55.98
2022-08-16T20:19:15.140Z,55.92
2022-08-16T20:22:51.987Z,57.18
2022-08-16T20:25:53.770Z,57.19
2022-08-16T20:28:59.460Z,58.24
2022-08-16T20:32:05.915Z,58.46
2022-08-16T20:35:12.894Z,58.90
2022-08-16T20:38:19.793Z,58.92
2022-08-16T20:41:25.464Z,59.32
2022-08-16T20:44:31.585Z,60.08
2022-08-16T20:47:38.067Z,61.38
2022-08-16T20:50:47.442Z,62.51
2022-08-16T20:53:53.022Z,61.91
2022-08-16T20:56:58.636Z,62.32
2022-08-16T21:00:04.479Z,63.26
2022-08-16T21:03:13.555Z,63.38
2022-08-16T21:06:19.145Z,63.51
2022-08-16T21:09:26.802Z,64.25
2022-08-16T21:12:45.373Z,64.49
2022-08-16T21:15:51.497Z,64.84
2022-08-16T21:18:57.290Z,65.34
2022-08-16T21:22:12.738Z,65.54
2022-08-16T21:25:18.173Z,66.05
2022-08-16T21:28:38.845Z,66.65
2022-08-16T21:31:48.350Z,66.97
2022-08-16T21:34:53.949Z,67.35
2022-08-16T21:38:00.139Z,67.82
2022-08-16T21:41:26.699Z,68.11
2022-08-16T21:44:38.528Z,68.66
2022-08-16T21:47:45.096Z,69.18
2022-08-16T21:50:51.566Z,69.36
2022-08-16T21:53:58.107Z,69.73
2022-08-16T21:57:07.429Z,69.94
2022-08-16T22:00:16.492Z,70.56
2022-08-16T22:03:23.542Z,70.84
2022-08-16T22:06:29.373Z,71.40
2022-08-16T22:09:35.094Z,71.79
2022-08-16T22:12:43.178Z,72.02
2022-08-16T22:15:50.484Z,72.91
2022-08-16T22:18:56.284Z,73.03
2022-08-16T22:22:02.667Z,73.47
2022-08-16T22:25:09.067Z,73.92
2022-08-16T22:28:15.249Z,74.55
2022-08-16T22:31:28.098Z,75.15
2022-08-16T22:34:34.586Z,75.04
2022-08-16T22:38:45.408Z,75.19
2022-08-16T22:41:07.921Z,75.27
2022-08-16T22:44:14.026Z,75.41
2022-08-16T22:47:20.724Z,75.77
2022-08-16T22:50:29.859Z,75.80
2022-08-16T22:53:37.449Z,76.35
2022-08-16T22:56:44.693Z,77.54
2022-08-16T22:59:52.892Z,77.37
2022-08-16T23:03:01.018Z,77.92
2022-08-16T23:06:07.140Z,78.37
2022-08-16T23:09:12.758Z,78.75
2022-08-16T23:12:18.891Z,78.63
2022-08-16T23:15:40.655Z,78.95
2022-08-16T23:18:46.227Z,79.74
2022-08-16T23:21:51.925Z,79.85
2022-08-16T23:24:57.977Z,79.89
2022-08-16T23:28:04.696Z,80.01
2022-08-16T23:31:12.663Z,80.57
2022-08-16T23:34:18.817Z,82.14
2022-08-16T23:37:24.503Z,81.66
2022-08-16T23:40:31.143Z,81.42
2022-08-16T23:43:38.988Z,81.64
2022-08-16T23:46:47.936Z,81.56
2022-08-16T23:50:02.689Z,81.12
2022-08-16T23:53:10.736Z,81.22
2022-08-16T23:56:17.360Z,81.85
2022-08-16T23:59:23.253Z,82.86
